Terminal Aerodrome Forecast
Issued by NWS Portland, OR

Home | Current Version | Previous Version | Text Only | Print | Product List | Glossary On
Versions: 1 2 3 4 5 6 7 8 9 10 11 12 13 14 15 16 17 18 19 20 21 22 23 24
000
FTUS46 KPQR 310253 AAA
TAFPDX
TAF AMD
KPDX 310253Z 3103/3124 31013KT P6SM SKC
     FM310600 32007KT P6SM SKC
     FM311300 32004KT P6SM BKN025
     FM311700 33005KT P6SM SCT250=

USA.gov is the U.S. government's official web portal to all federal, state and local government web resources and services.